Terminal Aerodrome Forecast
Issued by NWS Sterling, VA

Current Version | Previous Version | Graphics & Text | Print | Product List | Glossary On
Versions: 1 2 3 4 5 6 7 8 9 10 11 12 13 14 15 16 17 18 19 20 21 22 23 24 25 26
170
FTUS41 KLWX 221125
TAFDCA
TAF
KDCA 221125Z 2212/2312 21003KT P6SM FEW012 SCT250
     FM221600 20009KT P6SM SCT050
     FM222100 20012G19KT P6SM BKN050
     FM230200 21009KT P6SM OVC050
     FM230700 24005KT P6SM BKN050=

USA.gov is the U.S. government's official web portal to all federal, state and local government web resources and services.